Time;durP1;ratioP1;P1;durP2;ratioP2;P2;SDS_P1;SDS_P2;PMS_P1;PMS_P2;Temp;Humidity;BMP_temperature;BMP_pressure;BME280_temperature;BME280_humidity;BME280_pressure;Samples;Min_cycle;Max_cycle;Signal;HPM_P1;HPM_P2
2023/07/30 00:04:16;;;;;;;20.42;5.50;;;;;;;17.19;100.00;100821.38;10256990;29;20035;-67
2023/07/30 00:09:16;;;;;;;16.65;5.18;;;;;;;17.21;100.00;100821.97;10255942;29;20360;-67
2023/07/30 00:14:18;;;;;;;21.73;6.65;;;;;;;17.20;100.00;100818.41;10260561;29;20042;-67
2023/07/30 00:19:18;;;;;;;11.57;4.65;;;;;;;17.25;100.00;100822.31;10264419;28;20047;-68
2023/07/30 00:24:19;;;;;;;11.98;5.88;;;;;;;17.24;100.00;100826.16;10262679;29;20118;-67
2023/07/30 00:29:19;;;;;;;31.35;7.10;;;;;;;17.27;100.00;100825.66;10257501;29;20039;-67
2023/07/30 00:34:19;;;;;;;31.52;5.43;;;;;;;17.37;100.00;100828.59;10280186;28;20049;-67
2023/07/30 00:39:20;;;;;;;24.00;6.75;;;;;;;17.47;100.00;100836.16;10298306;28;20034;-67
2023/07/30 00:44:21;;;;;;;27.35;6.00;;;;;;;17.53;100.00;100843.41;10298376;28;20033;-67
2023/07/30 00:49:21;;;;;;;17.20;5.25;;;;;;;17.59;100.00;100842.41;10295643;28;20030;-66
2023/07/30 00:54:22;;;;;;;18.33;5.55;;;;;;;17.69;100.00;100844.50;10262120;28;20046;-67
2023/07/30 00:59:23;;;;;;;22.25;5.20;;;;;;;17.76;100.00;100848.75;10278275;28;20121;-67
2023/07/30 01:04:23;;;;;;;12.32;7.13;;;;;;;17.77;100.00;100850.47;10263184;28;20110;-67
2023/07/30 01:09:23;;;;;;;16.65;6.00;;;;;;;17.86;100.00;100853.59;10278356;28;20035;-67
2023/07/30 01:14:26;;;;;;;14.13;6.10;;;;;;;17.83;100.00;100854.94;10279030;28;20062;-67
2023/07/30 01:19:26;;;;;;;12.60;4.85;;;;;;;17.80;100.00;100854.59;10278652;28;20035;-67
2023/07/30 01:24:26;;;;;;;18.38;6.07;;;;;;;17.74;100.00;100861.03;10294288;28;20464;-67
2023/07/30 01:29:35;;;;;;;19.85;6.00;;;;;;;17.74;100.00;100859.13;10260358;28;20097;-67
2023/07/30 01:34:35;;;;;;;24.15;6.35;;;;;;;17.70;100.00;100855.22;10277204;28;20034;-67
2023/07/30 01:39:36;;;;;;;13.25;4.70;;;;;;;17.65;100.00;100850.47;10276458;28;20026;-67
2023/07/30 01:44:36;;;;;;;13.60;6.05;;;;;;;17.52;100.00;100855.44;10259842;28;20125;-67
2023/07/30 01:49:37;;;;;;;17.05;4.95;;;;;;;17.51;100.00;100859.22;10293319;28;20120;-70
2023/07/30 01:54:37;;;;;;;22.27;6.65;;;;;;;17.57;100.00;100864.56;10293634;28;20407;-67
2023/07/30 01:59:38;;;;;;;18.67;4.47;;;;;;;17.65;100.00;100863.34;10291639;28;20035;-67
2023/07/30 02:04:38;;;;;;;31.70;6.40;;;;;;;17.71;100.00;100867.84;10276438;28;20030;-67
2023/07/30 02:09:38;;;;;;;16.77;5.13;;;;;;;17.77;100.00;100868.78;10294123;28;20476;-67
2023/07/30 02:14:39;;;;;;;10.88;4.75;;;;;;;17.81;100.00;100862.56;10292685;28;20030;-67
2023/07/30 02:19:39;;;;;;;24.45;5.85;;;;;;;17.84;100.00;100856.59;10293033;28;20041;-66
2023/07/30 02:24:40;;;;;;;38.00;6.13;;;;;;;17.87;100.00;100858.84;10292887;28;20414;-67
2023/07/30 02:29:40;;;;;;;28.80;6.60;;;;;;;17.91;100.00;100861.94;10259063;28;20117;-66
2023/07/30 02:34:41;;;;;;;26.58;7.03;;;;;;;17.92;100.00;100851.78;10293499;28;20078;-67
2023/07/30 02:39:41;;;;;;;18.35;5.72;;;;;;;17.95;100.00;100854.88;10292360;28;20039;-67
2023/07/30 02:44:41;;;;;;;30.60;5.90;;;;;;;17.99;100.00;100849.72;10296924;28;20037;-68
2023/07/30 02:49:42;;;;;;;15.93;4.90;;;;;;;18.01;100.00;100847.56;10300648;28;20034;-68
2023/07/30 02:54:42;;;;;;;15.25;4.38;;;;;;;18.02;100.00;100846.47;10299717;28;20109;-69
2023/07/30 02:59:43;;;;;;;15.35;4.25;;;;;;;17.98;100.00;100839.84;10281994;28;20035;-68
2023/07/30 03:04:43;;;;;;;7.20;2.88;;;;;;;17.95;100.00;100854.88;10299039;28;20462;-69
2023/07/30 03:09:43;;;;;;;20.85;4.35;;;;;;;18.01;100.00;100850.31;10282473;28;20065;-68
2023/07/30 03:14:44;;;;;;;5.25;2.78;;;;;;;18.07;100.00;100854.81;10281439;28;20073;-69
2023/07/30 03:19:44;;;;;;;10.20;3.95;;;;;;;18.01;100.00;100853.88;10297960;28;20035;-68
2023/07/30 03:24:48;;;;;;;13.15;4.53;;;;;;;17.89;100.00;100858.59;10299828;28;20092;-68
2023/07/30 03:29:48;;;;;;;11.73;3.40;;;;;;;17.81;100.00;100862.56;10282978;28;20059;-68
2023/07/30 03:34:48;;;;;;;10.82;4.32;;;;;;;17.56;100.00;100859.34;10301377;28;20534;-68
2023/07/30 03:39:49;;;;;;;7.00;2.15;;;;;;;17.40;100.00;100848.09;10302501;28;20106;-68
2023/07/30 03:44:49;;;;;;;8.77;2.72;;;;;;;17.31;100.00;100859.66;10280685;28;20138;-69
2023/07/30 03:49:50;;;;;;;10.13;2.80;;;;;;;17.20;100.00;100864.13;10296700;28;20035;-68
2023/07/30 03:54:50;;;;;;;6.25;2.60;;;;;;;17.20;100.00;100870.41;10298445;28;20076;-69
2023/07/30 03:59:50;;;;;;;9.65;3.03;;;;;;;17.12;100.00;100864.47;10297600;28;20045;-68
2023/07/30 04:04:51;;;;;;;13.32;3.60;;;;;;;17.13;100.00;100861.53;10297222;28;20066;-69
2023/07/30 04:09:51;;;;;;;8.13;2.45;;;;;;;17.20;100.00;100867.69;10278958;28;20035;-69
2023/07/30 04:14:52;;;;;;;5.10;2.95;;;;;;;17.30;100.00;100858.00;10297818;28;20030;-69
2023/07/30 04:19:52;;;;;;;8.07;2.90;;;;;;;17.47;100.00;100867.09;10279879;28;20038;-68
2023/07/30 04:24:52;;;;;;;8.13;3.40;;;;;;;17.59;100.00;100869.81;10295434;28;20030;-69
2023/07/30 04:29:53;;;;;;;3.72;2.58;;;;;;;17.58;100.00;100865.38;10295156;28;20113;-68
2023/07/30 04:34:53;;;;;;;8.35;2.67;;;;;;;17.60;100.00;100863.25;10296360;28;20058;-68
2023/07/30 04:39:53;;;;;;;4.32;1.88;;;;;;;17.54;100.00;100872.44;10262307;28;20435;-68
2023/07/30 04:44:54;;;;;;;4.75;2.38;;;;;;;17.59;100.00;100865.16;10294958;28;20136;-68
2023/07/30 04:49:54;;;;;;;5.97;1.92;;;;;;;17.64;100.00;100875.34;10294907;28;20026;-67
2023/07/30 04:54:55;;;;;;;9.40;2.95;;;;;;;17.66;100.00;100873.22;10295729;28;20030;-68
2023/07/30 04:59:55;;;;;;;7.15;2.22;;;;;;;17.67;100.00;100880.34;10262204;28;20367;-68
2023/07/30 05:04:55;;;;;;;12.02;2.45;;;;;;;17.71;100.00;100875.22;10276423;28;20039;-68
2023/07/30 05:09:56;;;;;;;5.45;2.42;;;;;;;17.75;100.00;100879.13;10293859;28;20129;-68
2023/07/30 05:14:56;;;;;;;4.40;2.92;;;;;;;17.85;100.00;100888.41;10294442;28;20039;-69
2023/07/30 05:19:57;;;;;;;7.13;2.53;;;;;;;17.92;100.00;100881.94;10293388;28;20026;-68
2023/07/30 05:24:57;;;;;;;9.07;3.17;;;;;;;18.02;100.00;100888.41;10294086;28;20042;-68
2023/07/30 05:29:57;;;;;;;7.78;2.25;;;;;;;18.23;100.00;100897.00;10275758;28;20039;-68
2023/07/30 05:34:58;;;;;;;7.75;3.25;;;;;;;18.26;100.00;100886.38;10277041;28;20082;-68
2023/07/30 05:39:58;;;;;;;29.20;3.28;;;;;;;18.36;100.00;100880.22;10277719;28;20134;-68
2023/07/30 05:44:59;;;;;;;3.78;2.40;;;;;;;18.50;100.00;100881.53;10276031;28;20027;-68
2023/07/30 05:49:59;;;;;;;19.55;4.63;;;;;;;18.43;100.00;100877.31;10293379;28;20093;-69
2023/07/30 05:55:00;;;;;;;9.48;3.75;;;;;;;18.36;100.00;100877.47;10293133;28;20031;-68
2023/07/30 06:00:00;;;;;;;32.85;5.35;;;;;;;18.30;100.00;100879.28;10293386;28;20043;-68
2023/07/30 06:05:01;;;;;;;25.20;4.78;;;;;;;18.29;100.00;100879.56;10275232;28;20100;-69
2023/07/30 06:10:01;;;;;;;9.68;4.60;;;;;;;18.23;100.00;100881.38;10294443;28;20050;-69
2023/07/30 06:15:01;;;;;;;12.43;4.65;;;;;;;18.26;100.00;100874.56;10293352;28;20114;-69
2023/07/30 06:20:03;;;;;;;12.27;4.30;;;;;;;18.36;100.00;100881.03;10291366;28;20562;-68
2023/07/30 06:25:04;;;;;;;22.08;4.00;;;;;;;18.35;100.00;100873.91;10291918;28;20035;-68
2023/07/30 06:30:05;;;;;;;9.70;4.10;;;;;;;18.40;100.00;100895.09;10291282;28;20374;-68
2023/07/30 06:35:06;;;;;;;17.25;4.43;;;;;;;18.48;100.00;100891.94;10292471;28;20050;-68
2023/07/30 06:40:07;;;;;;;20.00;5.50;;;;;;;18.55;100.00;100889.84;10291756;28;20074;-68
2023/07/30 06:45:08;;;;;;;12.55;3.53;;;;;;;18.80;100.00;100885.84;10276001;28;20035;-68
2023/07/30 06:50:09;;;;;;;5.15;2.38;;;;;;;18.68;100.00;100885.09;10274390;28;20035;-69
2023/07/30 06:55:09;;;;;;;21.27;4.05;;;;;;;18.54;100.00;100895.59;10258356;28;20066;-69
2023/07/30 07:00:10;;;;;;;10.75;2.90;;;;;;;18.47;100.00;100897.66;10274861;28;20043;-67
2023/07/30 07:05:10;;;;;;;3.08;2.42;;;;;;;18.58;100.00;100902.22;10291360;28;20026;-68
2023/07/30 07:10:11;;;;;;;8.48;2.97;;;;;;;18.69;100.00;100900.47;10257732;28;20030;-67
2023/07/30 07:15:11;;;;;;;13.23;3.55;;;;;;;18.78;100.00;100908.03;10291908;28;20122;-68
2023/07/30 07:20:12;;;;;;;11.77;3.10;;;;;;;18.35;100.00;100912.28;10291184;28;20046;-67
2023/07/30 07:25:12;;;;;;;6.53;3.45;;;;;;;17.96;100.00;100915.97;10275151;28;20039;-68
2023/07/30 07:30:12;;;;;;;15.20;3.22;;;;;;;18.31;100.00;100930.31;10294352;28;20139;-68
2023/07/30 07:35:13;;;;;;;4.93;2.50;;;;;;;19.52;100.00;100932.34;10298207;28;20454;-69
2023/07/30 07:40:13;;;;;;;6.32;2.90;;;;;;;20.97;100.00;100930.72;10298114;28;20047;-66
2023/07/30 07:45:14;;;;;;;9.57;2.97;;;;;;;20.56;99.90;100926.84;10297195;28;20118;-69
2023/07/30 07:50:15;;;;;;;4.65;2.63;;;;;;;21.19;100.00;100944.34;10280167;28;20029;-68
2023/07/30 07:55:16;;;;;;;9.13;3.50;;;;;;;20.82;95.47;100945.19;10297813;28;20126;-69
2023/07/30 08:00:18;;;;;;;8.57;2.65;;;;;;;20.47;96.27;100953.97;10296523;28;20046;-67
2023/07/30 08:05:19;;;;;;;4.30;2.28;;;;;;;20.02;94.01;100957.97;10296816;28;20037;-68
2023/07/30 08:10:20;;;;;;;5.20;2.10;;;;;;;19.61;99.77;100965.72;10281079;28;20034;-68
2023/07/30 08:15:20;;;;;;;5.82;2.75;;;;;;;19.51;100.00;100974.66;10296575;28;20041;-68
2023/07/30 08:20:20;;;;;;;13.07;4.32;;;;;;;19.44;100.00;100956.72;10296686;28;20035;-69
2023/07/30 08:25:21;;;;;;;5.22;2.78;;;;;;;19.90;98.50;100960.84;10279960;28;20065;-69
2023/07/30 08:30:21;;;;;;;6.90;2.72;;;;;;;20.76;96.76;100953.69;10263734;28;20046;-68
2023/07/30 08:35:22;;;;;;;7.35;3.35;;;;;;;21.46;84.61;100944.22;10278867;28;20418;-68
2023/07/30 08:40:25;;;;;;;4.63;3.10;;;;;;;21.70;83.13;100952.84;10279304;28;20034;-68
2023/07/30 08:45:25;;;;;;;17.63;3.03;;;;;;;21.92;80.59;100951.78;10295737;28;20031;-68
2023/07/30 08:50:26;;;;;;;2.17;1.98;;;;;;;23.95;74.45;100952.63;10295735;28;20031;-68
2023/07/30 08:55:26;;;;;;;7.60;3.72;;;;;;;24.01;67.70;100962.56;10277847;28;20362;-68
2023/07/30 09:00:27;;;;;;;13.07;2.67;;;;;;;24.83;62.00;100971.09;10295590;28;20030;-68
2023/07/30 09:05:29;;;;;;;2.75;2.10;;;;;;;22.93;68.30;100966.78;10276509;28;20093;-69
2023/07/30 09:10:29;;;;;;;7.82;2.30;;;;;;;22.05;73.88;100965.09;10277813;28;20038;-69
2023/07/30 09:15:34;;;;;;;2.78;2.28;;;;;;;21.47;75.84;100976.16;10276883;28;20022;-68
2023/07/30 09:20:41;;;;;;;12.80;2.88;;;;;;;22.11;76.40;100979.69;10260590;28;20041;-68
2023/07/30 09:25:41;;;;;;;2.60;2.17;;;;;;;23.11;64.17;100987.50;10292647;28;20205;-71
2023/07/30 09:30:42;;;;;;;1.30;1.13;;;;;;;23.95;60.11;100985.81;10291632;28;20055;-68
2023/07/30 09:35:42;;;;;;;2.38;2.15;;;;;;;22.98;65.65;100975.91;10293128;28;20428;-70
2023/07/30 09:40:43;;;;;;;4.32;2.15;;;;;;;23.44;66.24;100997.91;10259722;28;20035;-68
2023/07/30 09:45:46;;;;;;;2.63;2.28;;;;;;;23.21;64.97;101001.28;10291839;28;20596;-68
2023/07/30 09:50:46;;;;;;;8.05;3.30;;;;;;;24.94;58.79;101018.06;10275290;28;20447;-69
2023/07/30 09:55:46;;;;;;;13.48;3.17;;;;;;;24.98;60.18;101016.38;10260487;28;20038;-68
2023/07/30 10:00:47;;;;;;;9.75;2.72;;;;;;;25.98;55.83;101011.97;10276140;28;20390;-68
2023/07/30 10:05:47;;;;;;;9.45;2.65;;;;;;;24.23;59.05;101024.97;10274463;28;20043;-68
2023/07/30 10:10:48;;;;;;;3.17;2.40;;;;;;;23.12;60.97;101030.59;10275425;28;20066;-68
2023/07/30 10:15:48;;;;;;;8.50;3.35;;;;;;;22.70;65.35;101024.22;10291564;28;20041;-67
2023/07/30 10:20:54;;;;;;;7.95;3.30;;;;;;;21.79;70.08;101033.06;10276151;28;20074;-68
2023/07/30 10:25:56;;;;;;;11.60;2.30;;;;;;;22.36;64.85;101034.94;10291845;28;20090;-68
2023/07/30 10:30:58;;;;;;;15.52;3.08;;;;;;;22.04;71.02;101046.97;10275469;28;20451;-67
2023/07/30 10:35:58;;;;;;;7.00;2.85;;;;;;;23.98;63.36;101045.28;10273856;28;20064;-68
2023/07/30 10:41:08;;;;;;;3.75;2.67;;;;;;;23.83;61.98;101049.75;10291972;28;20033;-67
2023/07/30 10:46:11;;;;;;;9.23;2.05;;;;;;;23.96;61.04;101053.03;10290963;28;20067;-68
2023/07/30 10:51:16;;;;;;;6.85;2.20;;;;;;;24.08;58.68;101059.06;10291894;28;20043;-69
2023/07/30 10:56:17;;;;;;;2.45;2.10;;;;;;;23.56;59.55;101069.47;10259033;28;20041;-68
2023/07/30 11:01:18;;;;;;;2.78;1.80;;;;;;;23.37;64.58;101066.47;10292116;28;20059;-67
2023/07/30 11:06:25;;;;;;;5.78;3.15;;;;;;;23.53;62.37;101061.72;10280026;28;20491;-67
2023/07/30 11:11:26;;;;;;;4.68;2.03;;;;;;;23.19;64.55;101069.81;10299032;28;20134;-69
2023/07/30 11:16:26;;;;;;;3.72;2.55;;;;;;;23.18;63.86;101079.19;10298728;28;20026;-68
2023/07/30 11:21:27;;;;;;;6.68;2.75;;;;;;;22.84;66.06;101073.38;10281464;28;20479;-68
2023/07/30 11:26:27;;;;;;;7.93;2.40;;;;;;;22.46;71.01;101081.91;10298648;28;20046;-72
2023/07/30 11:31:27;;;;;;;5.82;2.33;;;;;;;23.40;65.65;101070.59;10298037;28;20138;-68
2023/07/30 11:36:28;;;;;;;6.60;3.10;;;;;;;22.95;64.38;101075.06;10280608;28;20034;-68
2023/07/30 11:41:28;;;;;;;9.07;2.95;;;;;;;22.20;69.22;101086.47;10279833;28;20117;-68
2023/07/30 11:46:30;;;;;;;4.00;2.20;;;;;;;24.38;61.43;101091.31;10280336;28;20058;-68
2023/07/30 11:51:30;;;;;;;12.75;2.55;;;;;;;25.99;55.43;101083.00;10280540;28;20038;-69
2023/07/30 11:56:31;;;;;;;5.90;3.03;;;;;;;26.26;54.03;101089.84;10297321;28;20070;-68
2023/07/30 12:01:34;;;;;;;3.78;2.20;;;;;;;26.50;52.53;101073.19;10280950;28;20037;-68
2023/07/30 12:06:53;;;;;;;2.47;2.30;;;;;;;25.86;52.93;101092.03;10247764;28;20478;-69
2023/07/30 12:11:57;;;;;;;2.35;2.15;;;;;;;26.01;52.09;101089.09;10296968;28;20121;-69
2023/07/30 12:16:58;;;;;;;4.22;2.58;;;;;;;27.05;49.11;101090.91;10295080;28;20051;-68
2023/07/30 12:21:59;;;;;;;2.10;1.95;;;;;;;25.98;48.48;101100.78;10295499;28;20053;-69
2023/07/30 12:27:00;;;;;;;4.18;1.98;;;;;;;25.59;50.83;101098.13;10294986;28;20042;-68
2023/07/30 12:32:00;;;;;;;2.10;1.73;;;;;;;24.73;51.04;101106.03;10294872;28;20046;-68
2023/07/30 12:37:01;;;;;;;10.35;3.15;;;;;;;24.93;53.50;101105.09;10296555;28;20046;-69
2023/07/30 12:42:01;;;;;;;10.07;2.92;;;;;;;25.75;53.94;101107.94;10296261;28;20568;-69
2023/07/30 12:47:02;;;;;;;6.22;2.80;;;;;;;25.28;50.76;101106.75;10295430;28;20109;-68
2023/07/30 12:52:02;;;;;;;5.28;2.45;;;;;;;26.35;50.67;101100.00;10294397;28;20086;-70
2023/07/30 12:57:03;;;;;;;2.35;2.15;;;;;;;25.67;50.10;101089.16;10294840;28;20039;-69
2023/07/30 13:02:04;;;;;;;5.53;1.80;;;;;;;26.43;49.41;101090.19;10294617;28;20085;-68
2023/07/30 13:07:04;;;;;;;3.85;2.65;;;;;;;27.45;48.46;101101.66;10276494;28;20049;-69
2023/07/30 13:12:05;;;;;;;4.50;2.35;;;;;;;26.10;49.62;101108.66;10294250;28;20503;-68
2023/07/30 13:17:05;;;;;;;5.78;3.13;;;;;;;25.83;50.11;101104.53;10293488;28;20034;-70
2023/07/30 13:22:06;;;;;;;15.10;2.30;;;;;;;25.55;51.26;101106.19;10294662;28;20121;-69
2023/07/30 13:27:06;;;;;;;9.85;3.65;;;;;;;25.95;52.56;101104.13;10275499;28;20070;-68
2023/07/30 13:32:07;;;;;;;4.38;3.63;;;;;;;25.66;51.62;101116.09;10293193;28;20057;-68
2023/07/30 13:37:07;;;;;;;7.57;3.85;;;;;;;25.39;53.75;101108.31;10293608;28;20045;-68
2023/07/30 13:42:07;;;;;;;7.95;3.15;;;;;;;25.18;53.41;101106.84;10296095;28;20468;-67
2023/07/30 13:47:08;;;;;;;9.15;4.38;;;;;;;25.62;53.31;101114.16;10293330;28;20081;-69
2023/07/30 13:52:08;;;;;;;8.40;3.40;;;;;;;26.41;49.24;101117.41;10293536;28;20053;-70
2023/07/30 13:57:09;;;;;;;11.48;4.18;;;;;;;25.66;52.04;101118.84;10293625;28;20034;-70
2023/07/30 14:02:09;;;;;;;6.95;3.58;;;;;;;25.58;51.99;101102.84;10275339;28;20050;-68
2023/07/30 14:07:10;;;;;;;11.50;3.60;;;;;;;25.48;53.62;101119.59;10293288;28;20127;-68
2023/07/30 14:12:10;;;;;;;15.02;5.60;;;;;;;24.46;56.24;101120.34;10274515;28;20042;-68
2023/07/30 14:17:10;;;;;;;10.80;3.88;;;;;;;23.40;60.88;101125.88;10274478;28;20096;-71
2023/07/30 14:22:11;;;;;;;17.20;3.28;;;;;;;22.70;64.46;101109.81;10274885;28;20495;-68
2023/07/30 14:27:11;;;;;;;9.98;4.72;;;;;;;22.64;67.90;101113.66;10291504;28;20094;-70
2023/07/30 14:32:12;;;;;;;6.88;4.32;;;;;;;22.35;69.10;101118.81;10290441;28;20149;-70
2023/07/30 14:37:12;;;;;;;18.95;4.95;;;;;;;22.19;73.20;101108.84;10292285;28;20047;-70
2023/07/30 14:42:13;;;;;;;12.13;5.88;;;;;;;22.21;75.94;101120.44;10300128;28;20039;-68
2023/07/30 14:47:13;;;;;;;14.82;6.45;;;;;;;22.03;78.65;101107.91;10282773;28;20452;-69
2023/07/30 14:52:13;;;;;;;17.75;5.28;;;;;;;21.82;80.17;101095.94;10298319;28;20047;-68
2023/07/30 14:57:14;;;;;;;12.77;5.07;;;;;;;21.89;81.30;101101.22;10300562;28;20051;-68
2023/07/30 15:02:14;;;;;;;21.55;6.65;;;;;;;22.02;82.09;101090.53;10298282;28;20038;-69
2023/07/30 15:07:15;;;;;;;9.30;4.97;;;;;;;21.88;80.68;101097.63;10299410;28;20431;-67
2023/07/30 15:12:15;;;;;;;12.75;4.65;;;;;;;21.80;80.73;101100.91;10298644;28;20039;-68
2023/07/30 15:17:15;;;;;;;23.85;6.90;;;;;;;21.84;82.46;101102.03;10281583;28;20131;-68
2023/07/30 15:22:16;;;;;;;15.20;5.75;;;;;;;21.73;83.01;101097.53;10280755;28;20046;-68
2023/07/30 15:27:17;;;;;;;18.92;6.38;;;;;;;21.34;86.11;101106.09;10298945;28;20031;-69
2023/07/30 15:32:17;;;;;;;16.83;5.90;;;;;;;20.99;90.36;101101.13;10297491;28;20062;-70
2023/07/30 15:37:17;;;;;;;14.02;5.47;;;;;;;20.90;90.74;101093.38;10298320;28;20483;-69
2023/07/30 15:42:18;;;;;;;22.40;5.95;;;;;;;20.84;88.61;101093.59;10299078;28;20034;-69
2023/07/30 15:47:19;;;;;;;13.98;5.43;;;;;;;20.73;89.08;101094.56;10298045;28;20475;-69
2023/07/30 15:52:19;;;;;;;15.60;3.13;;;;;;;20.48;92.31;101106.09;10297223;28;20098;-68
2023/07/30 15:57:19;;;;;;;3.00;1.70;;;;;;;20.47;94.07;101094.28;10297547;28;20030;-68
2023/07/30 16:02:20;;;;;;;6.05;2.78;;;;;;;20.24;96.54;101094.56;10297739;28;20031;-68
2023/07/30 16:07:20;;;;;;;5.40;2.88;;;;;;;20.15;98.15;101095.00;10296893;28;20077;-68
2023/07/30 16:12:21;;;;;;;2.60;2.38;;;;;;;20.06;98.85;101090.22;10280332;28;20043;-68
2023/07/30 16:17:22;;;;;;;6.32;2.10;;;;;;;20.12;99.27;101090.03;10299532;28;20050;-67
2023/07/30 16:22:22;;;;;;;4.03;2.30;;;;;;;20.33;98.88;101093.03;10299210;28;20126;-67
2023/07/30 16:27:24;;;;;;;12.10;3.42;;;;;;;20.30;98.84;101090.81;10296290;28;20062;-68
2023/07/30 16:32:24;;;;;;;2.63;2.42;;;;;;;20.11;100.00;101079.31;10296356;28;20071;-68
2023/07/30 16:37:24;;;;;;;6.03;2.38;;;;;;;19.97;100.00;101081.59;10296833;28;20485;-68
2023/07/30 16:42:25;;;;;;;2.95;2.70;;;;;;;19.78;100.00;101083.00;10295430;28;20042;-68
2023/07/30 16:47:25;;;;;;;4.25;2.08;;;;;;;19.72;100.00;101071.94;10295845;28;20046;-69
2023/07/30 16:52:26;;;;;;;5.32;2.42;;;;;;;19.54;100.00;101077.69;10295062;28;20030;-67
2023/07/30 16:57:26;;;;;;;4.75;2.90;;;;;;;19.15;100.00;101068.59;10294894;28;20038;-68
2023/07/30 17:02:27;;;;;;;6.25;3.13;;;;;;;18.81;100.00;101055.69;10294034;28;20046;-69
2023/07/30 17:07:27;;;;;;;4.15;3.38;;;;;;;18.53;100.00;101058.47;10293415;28;20494;-69
2023/07/30 17:12:27;;;;;;;7.32;2.75;;;;;;;18.25;100.00;101064.78;10294883;28;20039;-70
2023/07/30 17:17:28;;;;;;;2.33;2.10;;;;;;;18.19;100.00;101057.53;10295071;28;20070;-69
2023/07/30 17:22:30;;;;;;;3.55;2.40;;;;;;;18.09;100.00;101061.75;10277331;28;20125;-68
2023/07/30 17:27:30;;;;;;;1.77;1.63;;;;;;;18.29;100.00;101055.84;10293706;28;20094;-68
2023/07/30 17:32:31;;;;;;;5.07;2.35;;;;;;;18.34;100.00;101057.84;10294093;28;20379;-69
2023/07/30 17:37:31;;;;;;;3.63;1.88;;;;;;;18.37;100.00;101043.63;10276483;28;20157;-67
2023/07/30 17:42:31;;;;;;;4.30;1.83;;;;;;;18.41;100.00;101036.59;10275823;28;20558;-68
2023/07/30 17:47:32;;;;;;;4.65;2.35;;;;;;;18.28;100.00;101040.47;10293498;28;20041;-68
2023/07/30 17:52:32;;;;;;;4.18;2.00;;;;;;;18.27;100.00;101044.28;10292935;28;20109;-68
2023/07/30 17:57:33;;;;;;;6.25;2.55;;;;;;;18.20;100.00;101034.53;10294093;28;20050;-68
2023/07/30 18:02:34;;;;;;;2.78;2.53;;;;;;;18.02;100.00;101030.91;10274545;28;20027;-69
2023/07/30 18:07:34;;;;;;;6.40;1.92;;;;;;;17.89;100.00;101048.44;10276400;28;20045;-69
2023/07/30 18:12:35;;;;;;;3.63;1.88;;;;;;;17.98;100.00;101040.69;10291435;28;20039;-68
2023/07/30 18:17:35;;;;;;;6.63;1.90;;;;;;;17.90;100.00;101046.56;10291424;28;20363;-70
2023/07/30 18:22:36;;;;;;;6.03;2.13;;;;;;;17.81;100.00;101037.91;10292333;28;20043;-68
2023/07/30 18:27:36;;;;;;;4.30;2.00;;;;;;;17.90;100.00;101046.56;10257918;28;20442;-68
2023/07/30 18:32:36;;;;;;;2.50;2.30;;;;;;;17.82;100.00;101045.03;10291226;28;20054;-67
2023/07/30 18:37:38;;;;;;;4.50;1.77;;;;;;;17.67;100.00;101030.97;10275131;28;20340;-67
2023/07/30 18:42:38;;;;;;;4.82;1.48;;;;;;;17.65;100.00;101036.72;10274404;28;20050;-67
2023/07/30 18:47:39;;;;;;;2.45;1.90;;;;;;;17.59;100.00;101037.66;10291507;28;20049;-66
2023/07/30 18:52:39;;;;;;;1.90;1.40;;;;;;;17.42;100.00;101026.63;10258775;28;20387;-65
2023/07/30 18:57:40;;;;;;;1.70;1.60;;;;;;;17.33;100.00;101040.91;10291739;28;20041;-65
2023/07/30 19:02:40;;;;;;;3.67;1.73;;;;;;;17.16;100.00;101038.03;10291576;28;20486;-66
2023/07/30 19:07:40;;;;;;;2.20;1.73;;;;;;;17.04;100.00;101035.31;10290409;28;20054;-64
2023/07/30 19:12:41;;;;;;;1.40;1.30;;;;;;;16.83;100.00;101041.38;10291476;28;20133;-65
2023/07/30 19:17:41;;;;;;;2.63;1.77;;;;;;;16.74;100.00;101044.41;10291718;28;20031;-65
2023/07/30 19:22:42;;;;;;;1.83;1.17;;;;;;;16.58;100.00;101034.13;10275358;28;20058;-65
2023/07/30 19:27:42;;;;;;;1.60;1.50;;;;;;;16.48;100.00;101045.66;10297692;28;20042;-65
2023/07/30 19:32:43;;;;;;;0.75;0.75;;;;;;;16.37;100.00;101040.13;10282096;28;20066;-65
2023/07/30 19:37:44;;;;;;;3.05;1.92;;;;;;;16.34;100.00;101044.19;10298007;28;20093;-65
2023/07/30 19:42:44;;;;;;;1.85;1.13;;;;;;;16.27;100.00;101051.63;10280508;28;20458;-66
2023/07/30 19:47:45;;;;;;;3.45;2.10;;;;;;;16.20;100.00;101042.69;10297298;28;20031;-66
2023/07/30 19:52:45;;;;;;;5.88;4.43;;;;;;;16.09;100.00;101038.84;10298344;28;20070;-66
2023/07/30 19:57:46;;;;;;;7.97;3.78;;;;;;;15.99;100.00;101044.03;10281750;28;20031;-66
2023/07/30 20:02:46;;;;;;;1.40;1.33;;;;;;;15.89;100.00;101036.38;10297404;28;20043;-66
2023/07/30 20:07:47;;;;;;;4.45;2.47;;;;;;;15.86;100.00;101028.66;10298675;28;20027;-66
2023/07/30 20:12:47;;;;;;;2.67;2.08;;;;;;;15.84;100.00;101022.56;10280687;28;20062;-66
2023/07/30 20:17:47;;;;;;;10.02;1.88;;;;;;;15.79;100.00;101038.78;10280016;28;20035;-66
2023/07/30 20:22:48;;;;;;;5.05;2.05;;;;;;;15.83;100.00;101048.22;10296273;28;20066;-67
2023/07/30 20:27:48;;;;;;;3.85;2.15;;;;;;;15.84;100.00;101059.97;10297084;28;20046;-66
2023/07/30 20:32:49;;;;;;;3.67;3.00;;;;;;;15.85;100.00;101042.53;10278723;28;20055;-66
2023/07/30 20:37:51;;;;;;;8.05;2.85;;;;;;;15.85;100.00;101037.88;10296593;28;20030;-66
2023/07/30 20:42:52;;;;;;;4.35;1.83;;;;;;;15.81;100.00;101042.16;10295356;28;20409;-66
2023/07/30 20:47:53;;;;;;;5.00;1.77;;;;;;;15.78;100.00;101029.78;10294308;28;20035;-66
2023/07/30 20:52:54;;;;;;;3.15;1.80;;;;;;;15.82;100.00;101032.88;10294606;28;20039;-65
2023/07/30 20:57:54;;;;;;;5.20;2.60;;;;;;;15.89;100.00;101025.47;10294956;28;20066;-65
2023/07/30 21:02:55;;;;;;;3.03;1.95;;;;;;;15.87;100.00;101015.81;10294817;28;20078;-65
2023/07/30 21:07:55;;;;;;;7.40;3.50;;;;;;;15.87;100.00;101018.56;10262648;28;20030;-66
2023/07/30 21:12:55;;;;;;;0.40;0.40;;;;;;;15.89;100.00;101027.34;10293416;28;20031;-65
2023/07/30 21:17:56;;;;;;;0.60;0.60;;;;;;;15.92;100.00;101018.69;10294844;28;20431;-65
2023/07/30 21:22:56;;;;;;;0.28;0.28;;;;;;;15.90;100.00;101009.91;10293889;28;20034;-66
2023/07/30 21:27:57;;;;;;;0.40;0.40;;;;;;;15.85;100.00;101004.28;10295040;28;20069;-66
2023/07/30 21:33:00;;;;;;;0.38;0.38;;;;;;;15.75;100.00;100997.47;10293985;28;20077;-66
2023/07/30 21:38:00;;;;;;;0.30;0.30;;;;;;;15.73;100.00;100982.38;10293346;28;20110;-66
2023/07/30 21:43:01;;;;;;;0.20;0.20;;;;;;;15.69;100.00;100981.19;10293799;28;20113;-66
2023/07/30 21:48:01;;;;;;;0.50;0.50;;;;;;;15.77;100.00;100986.34;10275366;28;20114;-66
2023/07/30 21:53:03;;;;;;;0.28;0.28;;;;;;;15.82;100.00;100975.53;10292910;28;20057;-66
2023/07/30 21:58:04;;;;;;;0.30;0.30;;;;;;;15.75;100.00;100972.06;10293924;28;20035;-66
2023/07/30 22:03:04;;;;;;;0.30;0.30;;;;;;;15.70;100.00;100964.59;10294223;28;20449;-65
2023/07/30 22:08:05;;;;;;;0.77;0.77;;;;;;;15.87;100.00;100966.66;10291808;28;20046;-65
2023/07/30 22:13:05;;;;;;;0.40;0.40;;;;;;;16.15;100.00;100947.78;10259508;28;20030;-65
2023/07/30 22:18:05;;;;;;;3.03;2.83;;;;;;;16.43;100.00;100955.31;10293419;28;20515;-66
2023/07/30 22:23:06;;;;;;;0.43;0.43;;;;;;;16.55;100.00;100952.59;10291641;28;20031;-68
2023/07/30 22:28:06;;;;;;;0.93;0.88;;;;;;;16.60;100.00;100952.72;10291368;28;20534;-66
2023/07/30 22:33:07;;;;;;;0.68;0.68;;;;;;;16.60;100.00;100955.47;10274145;28;20055;-66
2023/07/30 22:38:07;;;;;;;0.60;0.60;;;;;;;16.66;100.00;100959.16;10291849;28;20129;-66
2023/07/30 22:43:08;;;;;;;2.25;2.15;;;;;;;16.71;100.00;100962.00;10291755;28;20390;-66
2023/07/30 22:48:09;;;;;;;1.30;1.25;;;;;;;16.78;100.00;100950.97;10292124;28;20118;-66